sensor_id;sensor_type;location;lat;lon;timestamp;temperature;humidity
9271;DHT22;4673;53.458;9.940;2023-06-22T00:02:16;16.90;80.60
9271;DHT22;4673;53.458;9.940;2023-06-22T00:04:41;16.90;80.80
9271;DHT22;4673;53.458;9.940;2023-06-22T00:07:07;16.90;80.60
9271;DHT22;4673;53.458;9.940;2023-06-22T00:09:33;16.90;80.70
9271;DHT22;4673;53.458;9.940;2023-06-22T00:11:59;16.90;80.70
9271;DHT22;4673;53.458;9.940;2023-06-22T00:14:25;17.00;80.70
9271;DHT22;4673;53.458;9.940;2023-06-22T00:16:51;17.00;80.50
9271;DHT22;4673;53.458;9.940;2023-06-22T00:19:20;17.00;80.60
9271;DHT22;4673;53.458;9.940;2023-06-22T00:21:47;17.00;80.30
9271;DHT22;4673;53.458;9.940;2023-06-22T00:24:18;17.00;79.90
9271;DHT22;4673;53.458;9.940;2023-06-22T00:26:44;16.90;79.80
9271;DHT22;4673;53.458;9.940;2023-06-22T00:29:10;17.10;79.80
9271;DHT22;4673;53.458;9.940;2023-06-22T00:31:36;17.10;79.50
9271;DHT22;4673;53.458;9.940;2023-06-22T00:34:01;17.10;79.60
9271;DHT22;4673;53.458;9.940;2023-06-22T00:36:27;17.10;79.50
9271;DHT22;4673;53.458;9.940;2023-06-22T00:38:52;17.10;79.50
9271;DHT22;4673;53.458;9.940;2023-06-22T00:41:18;17.20;79.90
9271;DHT22;4673;53.458;9.940;2023-06-22T00:43:45;17.10;80.10
9271;DHT22;4673;53.458;9.940;2023-06-22T00:46:11;17.20;80.30
9271;DHT22;4673;53.458;9.940;2023-06-22T00:48:37;17.20;80.30
9271;DHT22;4673;53.458;9.940;2023-06-22T00:51:03;17.20;80.20
9271;DHT22;4673;53.458;9.940;2023-06-22T00:53:29;17.20;80.50
9271;DHT22;4673;53.458;9.940;2023-06-22T00:55:55;17.20;80.50
9271;DHT22;4673;53.458;9.940;2023-06-22T00:58:21;17.30;80.10
9271;DHT22;4673;53.458;9.940;2023-06-22T01:00:48;17.30;79.90
9271;DHT22;4673;53.458;9.940;2023-06-22T01:03:14;17.20;79.80
9271;DHT22;4673;53.458;9.940;2023-06-22T01:05:40;17.20;79.90
9271;DHT22;4673;53.458;9.940;2023-06-22T01:08:12;17.10;80.30
9271;DHT22;4673;53.458;9.940;2023-06-22T01:10:55;17.10;80.70
9271;DHT22;4673;53.458;9.940;2023-06-22T01:13:45;17.10;81.40
9271;DHT22;4673;53.458;9.940;2023-06-22T01:16:16;17.00;81.60
9271;DHT22;4673;53.458;9.940;2023-06-22T01:18:44;17.10;81.40
9271;DHT22;4673;53.458;9.940;2023-06-22T01:21:13;17.00;81.40
9271;DHT22;4673;53.458;9.940;2023-06-22T01:24:22;17.00;81.40
9271;DHT22;4673;53.458;9.940;2023-06-22T01:29:28;16.90;82.60
9271;DHT22;4673;53.458;9.940;2023-06-22T01:31:56;16.80;82.80
9271;DHT22;4673;53.458;9.940;2023-06-22T01:34:23;16.80;83.20
9271;DHT22;4673;53.458;9.940;2023-06-22T01:36:50;16.80;83.40
9271;DHT22;4673;53.458;9.940;2023-06-22T01:39:21;16.80;83.60
9271;DHT22;4673;53.458;9.940;2023-06-22T01:41:47;16.80;83.70
9271;DHT22;4673;53.458;9.940;2023-06-22T01:44:13;16.90;83.40
9271;DHT22;4673;53.458;9.940;2023-06-22T01:46:39;16.90;83.50
9271;DHT22;4673;53.458;9.940;2023-06-22T01:49:06;16.90;83.20
9271;DHT22;4673;53.458;9.940;2023-06-22T01:51:32;16.90;83.10
9271;DHT22;4673;53.458;9.940;2023-06-22T01:53:58;16.80;83.20
9271;DHT22;4673;53.458;9.940;2023-06-22T01:56:24;16.80;83.60
9271;DHT22;4673;53.458;9.940;2023-06-22T01:59:14;16.70;84.00
9271;DHT22;4673;53.458;9.940;2023-06-22T02:02:07;16.70;84.40
9271;DHT22;4673;53.458;9.940;2023-06-22T02:05:03;16.70;84.70
9271;DHT22;4673;53.458;9.940;2023-06-22T02:07:34;16.60;85.10
9271;DHT22;4673;53.458;9.940;2023-06-22T02:10:05;16.70;85.50
9271;DHT22;4673;53.458;9.940;2023-06-22T02:12:34;16.70;85.60
9271;DHT22;4673;53.458;9.940;2023-06-22T02:15:01;16.60;85.50
9271;DHT22;4673;53.458;9.940;2023-06-22T02:17:27;16.60;85.80
9271;DHT22;4673;53.458;9.940;2023-06-22T02:19:53;16.60;85.90
9271;DHT22;4673;53.458;9.940;2023-06-22T02:22:19;16.50;86.00
9271;DHT22;4673;53.458;9.940;2023-06-22T02:24:45;16.40;86.20
9271;DHT22;4673;53.458;9.940;2023-06-22T02:27:10;16.50;86.50
9271;DHT22;4673;53.458;9.940;2023-06-22T02:29:36;16.40;86.60
9271;DHT22;4673;53.458;9.940;2023-06-22T02:32:02;16.40;86.80
9271;DHT22;4673;53.458;9.940;2023-06-22T02:34:29;16.40;87.10
9271;DHT22;4673;53.458;9.940;2023-06-22T02:36:55;16.40;87.40
9271;DHT22;4673;53.458;9.940;2023-06-22T02:39:21;16.40;87.50
9271;DHT22;4673;53.458;9.940;2023-06-22T02:41:54;16.40;87.80
9271;DHT22;4673;53.458;9.940;2023-06-22T02:44:20;16.40;88.10
9271;DHT22;4673;53.458;9.940;2023-06-22T02:46:47;16.40;88.30
9271;DHT22;4673;53.458;9.940;2023-06-22T02:49:13;16.40;88.50
9271;DHT22;4673;53.458;9.940;2023-06-22T02:51:41;16.40;88.00
9271;DHT22;4673;53.458;9.940;2023-06-22T02:54:07;16.30;88.00
9271;DHT22;4673;53.458;9.940;2023-06-22T02:56:33;16.20;88.20
9271;DHT22;4673;53.458;9.940;2023-06-22T02:58:59;16.20;88.70
9271;DHT22;4673;53.458;9.940;2023-06-22T03:01:30;16.20;89.20
9271;DHT22;4673;53.458;9.940;2023-06-22T03:04:08;16.20;89.60
9271;DHT22;4673;53.458;9.940;2023-06-22T03:06:35;16.20;89.70
9271;DHT22;4673;53.458;9.940;2023-06-22T03:09:03;16.20;90.00
9271;DHT22;4673;53.458;9.940;2023-06-22T03:11:34;16.20;90.40
9271;DHT22;4673;53.458;9.940;2023-06-22T03:14:01;16.20;90.70
9271;DHT22;4673;53.458;9.940;2023-06-22T03:16:27;16.30;90.90
9271;DHT22;4673;53.458;9.940;2023-06-22T03:18:53;16.30;90.80
9271;DHT22;4673;53.458;9.940;2023-06-22T03:21:19;16.30;90.50
9271;DHT22;4673;53.458;9.940;2023-06-22T03:23:45;16.20;90.30
9271;DHT22;4673;53.458;9.940;2023-06-22T03:26:10;16.20;90.70
9271;DHT22;4673;53.458;9.940;2023-06-22T03:28:37;16.30;91.10
9271;DHT22;4673;53.458;9.940;2023-06-22T03:31:03;16.40;91.20
9271;DHT22;4673;53.458;9.940;2023-06-22T03:33:29;16.40;90.90
9271;DHT22;4673;53.458;9.940;2023-06-22T03:35:55;16.50;90.60
9271;DHT22;4673;53.458;9.940;2023-06-22T03:38:21;16.60;90.80
9271;DHT22;4673;53.458;9.940;2023-06-22T03:40:47;16.60;90.70
9271;DHT22;4673;53.458;9.940;2023-06-22T03:43:12;16.80;90.60
9271;DHT22;4673;53.458;9.940;2023-06-22T03:45:38;16.90;90.10
9271;DHT22;4673;53.458;9.940;2023-06-22T03:48:05;17.10;89.70
9271;DHT22;4673;53.458;9.940;2023-06-22T03:50:31;17.20;88.90
9271;DHT22;4673;53.458;9.940;2023-06-22T03:52:57;17.30;88.50
9271;DHT22;4673;53.458;9.940;2023-06-22T03:55:23;17.40;88.10
9271;DHT22;4673;53.458;9.940;2023-06-22T03:57:48;17.50;88.00
9271;DHT22;4673;53.458;9.940;2023-06-22T04:00:15;17.70;87.50
9271;DHT22;4673;53.458;9.940;2023-06-22T04:02:43;17.90;86.80
9271;DHT22;4673;53.458;9.940;2023-06-22T04:05:09;18.00;85.60
9271;DHT22;4673;53.458;9.940;2023-06-22T04:07:35;18.10;84.60
9271;DHT22;4673;53.458;9.940;2023-06-22T04:10:03;18.20;83.90
9271;DHT22;4673;53.458;9.940;2023-06-22T04:12:29;18.30;83.60
9271;DHT22;4673;53.458;9.940;2023-06-22T04:14:55;18.30;82.90
9271;DHT22;4673;53.458;9.940;2023-06-22T04:17:21;18.50;82.60
9271;DHT22;4673;53.458;9.940;2023-06-22T04:19:46;18.50;82.10
9271;DHT22;4673;53.458;9.940;2023-06-22T04:22:12;18.60;81.70
9271;DHT22;4673;53.458;9.940;2023-06-22T04:24:38;18.60;81.30
9271;DHT22;4673;53.458;9.940;2023-06-22T04:27:04;18.70;81.10
9271;DHT22;4673;53.458;9.940;2023-06-22T04:29:30;18.80;80.50
9271;DHT22;4673;53.458;9.940;2023-06-22T04:31:56;18.80;80.30
9271;DHT22;4673;53.458;9.940;2023-06-22T04:34:24;18.80;80.30
9271;DHT22;4673;53.458;9.940;2023-06-22T04:36:53;18.90;80.40
9271;DHT22;4673;53.458;9.940;2023-06-22T04:39:19;19.00;80.20
9271;DHT22;4673;53.458;9.940;2023-06-22T04:41:45;19.10;80.00
9271;DHT22;4673;53.458;9.940;2023-06-22T04:44:15;19.20;79.90
9271;DHT22;4673;53.458;9.940;2023-06-22T04:46:55;19.30;79.80
9271;DHT22;4673;53.458;9.940;2023-06-22T04:49:33;19.30;79.10
9271;DHT22;4673;53.458;9.940;2023-06-22T04:52:06;19.40;78.70
9271;DHT22;4673;53.458;9.940;2023-06-22T04:54:33;19.50;78.50
9271;DHT22;4673;53.458;9.940;2023-06-22T04:57:00;19.70;78.20
9271;DHT22;4673;53.458;9.940;2023-06-22T04:59:30;19.80;77.40
9271;DHT22;4673;53.458;9.940;2023-06-22T05:02:02;20.00;76.40
9271;DHT22;4673;53.458;9.940;2023-06-22T05:04:30;20.10;76.20
9271;DHT22;4673;53.458;9.940;2023-06-22T05:07:01;20.20;75.20
9271;DHT22;4673;53.458;9.940;2023-06-22T05:09:28;20.30;74.10
9271;DHT22;4673;53.458;9.940;2023-06-22T05:11:53;20.40;73.00
9271;DHT22;4673;53.458;9.940;2023-06-22T05:14:19;20.60;72.00
9271;DHT22;4673;53.458;9.940;2023-06-22T05:16:45;20.60;70.00
9271;DHT22;4673;53.458;9.940;2023-06-22T05:19:11;20.80;68.20
9271;DHT22;4673;53.458;9.940;2023-06-22T05:21:37;21.00;66.50
9271;DHT22;4673;53.458;9.940;2023-06-22T05:24:03;21.00;65.00
9271;DHT22;4673;53.458;9.940;2023-06-22T05:26:30;21.10;64.10
9271;DHT22;4673;53.458;9.940;2023-06-22T05:28:57;21.10;62.40
9271;DHT22;4673;53.458;9.940;2023-06-22T05:31:23;21.10;61.40
9271;DHT22;4673;53.458;9.940;2023-06-22T05:33:51;21.30;60.50
9271;DHT22;4673;53.458;9.940;2023-06-22T05:36:17;21.40;60.70
9271;DHT22;4673;53.458;9.940;2023-06-22T05:38:45;21.60;60.00
9271;DHT22;4673;53.458;9.940;2023-06-22T05:41:11;21.70;56.70
9271;DHT22;4673;53.458;9.940;2023-06-22T05:43:36;21.80;56.60
9271;DHT22;4673;53.458;9.940;2023-06-22T05:46:03;21.90;54.80
9271;DHT22;4673;53.458;9.940;2023-06-22T05:48:29;22.00;53.10
9271;DHT22;4673;53.458;9.940;2023-06-22T05:50:54;21.90;52.20
9271;DHT22;4673;53.458;9.940;2023-06-22T05:53:20;21.90;53.10
9271;DHT22;4673;53.458;9.940;2023-06-22T05:55:46;22.10;52.70
9271;DHT22;4673;53.458;9.940;2023-06-22T05:58:12;22.20;50.50
9271;DHT22;4673;53.458;9.940;2023-06-22T06:00:39;22.30;49.20
9271;DHT22;4673;53.458;9.940;2023-06-22T06:03:06;22.50;48.90
9271;DHT22;4673;53.458;9.940;2023-06-22T06:05:33;22.60;48.50
9271;DHT22;4673;53.458;9.940;2023-06-22T06:08:00;22.70;47.20
9271;DHT22;4673;53.458;9.940;2023-06-22T06:10:26;22.80;47.30
9271;DHT22;4673;53.458;9.940;2023-06-22T06:12:52;23.00;47.30
9271;DHT22;4673;53.458;9.940;2023-06-22T06:15:18;23.10;46.20
9271;DHT22;4673;53.458;9.940;2023-06-22T06:17:48;23.00;46.00
9271;DHT22;4673;53.458;9.940;2023-06-22T06:20:14;23.10;45.70
9271;DHT22;4673;53.458;9.940;2023-06-22T06:22:40;23.30;45.10
9271;DHT22;4673;53.458;9.940;2023-06-22T06:25:08;23.40;45.60
9271;DHT22;4673;53.458;9.940;2023-06-22T06:27:34;23.50;45.90
9271;DHT22;4673;53.458;9.940;2023-06-22T06:29:59;23.70;45.40
9271;DHT22;4673;53.458;9.940;2023-06-22T06:32:25;23.80;44.40
9271;DHT22;4673;53.458;9.940;2023-06-22T06:34:51;23.80;43.20
9271;DHT22;4673;53.458;9.940;2023-06-22T06:37:17;23.90;43.90
9271;DHT22;4673;53.458;9.940;2023-06-22T06:39:44;24.00;43.10
9271;DHT22;4673;53.458;9.940;2023-06-22T06:42:10;24.00;43.70
9271;DHT22;4673;53.458;9.940;2023-06-22T06:44:36;24.10;41.50
9271;DHT22;4673;53.458;9.940;2023-06-22T06:47:04;24.40;41.60
9271;DHT22;4673;53.458;9.940;2023-06-22T06:49:29;24.60;40.90
9271;DHT22;4673;53.458;9.940;2023-06-22T06:51:55;24.80;39.00
9271;DHT22;4673;53.458;9.940;2023-06-22T06:54:21;24.70;40.20
9271;DHT22;4673;53.458;9.940;2023-06-22T06:56:47;24.70;38.90
9271;DHT22;4673;53.458;9.940;2023-06-22T06:59:14;24.80;37.50
9271;DHT22;4673;53.458;9.940;2023-06-22T07:01:41;24.80;37.90
9271;DHT22;4673;53.458;9.940;2023-06-22T07:04:07;24.70;36.40
9271;DHT22;4673;53.458;9.940;2023-06-22T07:06:32;24.40;37.50
9271;DHT22;4673;53.458;9.940;2023-06-22T07:08:59;24.20;38.90
9271;DHT22;4673;53.458;9.940;2023-06-22T07:28:26;23.90;40.10
9271;DHT22;4673;53.458;9.940;2023-06-22T07:30:51;24.00;39.60
9271;DHT22;4673;53.458;9.940;2023-06-22T07:33:17;23.80;40.00
9271;DHT22;4673;53.458;9.940;2023-06-22T07:35:43;23.40;42.80
9271;DHT22;4673;53.458;9.940;2023-06-22T07:38:09;23.70;41.60
9271;DHT22;4673;53.458;9.940;2023-06-22T07:40:36;23.80;42.20
9271;DHT22;4673;53.458;9.940;2023-06-22T07:43:02;24.00;41.20
9271;DHT22;4673;53.458;9.940;2023-06-22T07:45:29;24.40;40.10
9271;DHT22;4673;53.458;9.940;2023-06-22T07:47:55;24.60;36.70
9271;DHT22;4673;53.458;9.940;2023-06-22T07:50:21;24.70;38.40
9271;DHT22;4673;53.458;9.940;2023-06-22T07:52:46;24.60;38.30
9271;DHT22;4673;53.458;9.940;2023-06-22T07:55:13;24.80;38.00
9271;DHT22;4673;53.458;9.940;2023-06-22T07:57:39;24.60;36.40
9271;DHT22;4673;53.458;9.940;2023-06-22T08:00:07;24.60;36.80
9271;DHT22;4673;53.458;9.940;2023-06-22T08:02:40;24.80;38.10
9271;DHT22;4673;53.458;9.940;2023-06-22T08:05:07;25.10;37.20
9271;DHT22;4673;53.458;9.940;2023-06-22T08:07:34;25.30;33.70
9271;DHT22;4673;53.458;9.940;2023-06-22T08:10:03;25.20;33.90
9271;DHT22;4673;53.458;9.940;2023-06-22T08:12:29;25.10;35.40
9271;DHT22;4673;53.458;9.940;2023-06-22T08:14:55;25.30;34.40
9271;DHT22;4673;53.458;9.940;2023-06-22T08:17:22;25.40;35.00
9271;DHT22;4673;53.458;9.940;2023-06-22T08:19:48;25.70;32.10
9271;DHT22;4673;53.458;9.940;2023-06-22T08:22:15;25.80;30.10
9271;DHT22;4673;53.458;9.940;2023-06-22T08:24:41;25.20;31.70
9271;DHT22;4673;53.458;9.940;2023-06-22T08:27:10;25.50;33.60
9271;DHT22;4673;53.458;9.940;2023-06-22T08:29:38;25.70;32.70
9271;DHT22;4673;53.458;9.940;2023-06-22T08:32:04;25.90;31.90
9271;DHT22;4673;53.458;9.940;2023-06-22T08:34:30;26.10;29.80
9271;DHT22;4673;53.458;9.940;2023-06-22T08:36:56;25.90;28.20
9271;DHT22;4673;53.458;9.940;2023-06-22T08:39:22;25.90;28.20
9271;DHT22;4673;53.458;9.940;2023-06-22T08:41:48;25.90;27.60
9271;DHT22;4673;53.458;9.940;2023-06-22T08:44:16;25.90;28.20
9271;DHT22;4673;53.458;9.940;2023-06-22T08:46:42;26.00;29.30
9271;DHT22;4673;53.458;9.940;2023-06-22T08:49:08;25.80;26.50
9271;DHT22;4673;53.458;9.940;2023-06-22T08:51:35;25.40;28.10
9271;DHT22;4673;53.458;9.940;2023-06-22T08:54:01;25.20;30.90
9271;DHT22;4673;53.458;9.940;2023-06-22T08:56:27;25.30;30.60
9271;DHT22;4673;53.458;9.940;2023-06-22T08:58:52;25.40;31.30
9271;DHT22;4673;53.458;9.940;2023-06-22T09:01:18;25.50;30.10
9271;DHT22;4673;53.458;9.940;2023-06-22T09:03:44;25.60;31.60
9271;DHT22;4673;53.458;9.940;2023-06-22T09:06:20;25.60;29.20
9271;DHT22;4673;53.458;9.940;2023-06-22T09:08:46;25.50;29.20
9271;DHT22;4673;53.458;9.940;2023-06-22T09:11:12;25.60;28.90
9271;DHT22;4673;53.458;9.940;2023-06-22T09:13:38;25.40;27.90
9271;DHT22;4673;53.458;9.940;2023-06-22T09:16:04;25.30;27.40
9271;DHT22;4673;53.458;9.940;2023-06-22T09:18:29;25.30;29.10
9271;DHT22;4673;53.458;9.940;2023-06-22T09:20:55;25.40;30.50
9271;DHT22;4673;53.458;9.940;2023-06-22T09:23:21;25.40;28.80
9271;DHT22;4673;53.458;9.940;2023-06-22T09:25:47;25.30;31.50
9271;DHT22;4673;53.458;9.940;2023-06-22T09:28:14;25.40;31.30
9271;DHT22;4673;53.458;9.940;2023-06-22T09:30:39;25.60;30.10
9271;DHT22;4673;53.458;9.940;2023-06-22T09:33:05;25.60;28.80
9271;DHT22;4673;53.458;9.940;2023-06-22T09:35:30;25.70;31.20
9271;DHT22;4673;53.458;9.940;2023-06-22T09:37:56;25.60;28.60
9271;DHT22;4673;53.458;9.940;2023-06-22T09:40:22;25.60;30.80
9271;DHT22;4673;53.458;9.940;2023-06-22T09:42:47;25.70;30.70
9271;DHT22;4673;53.458;9.940;2023-06-22T09:45:13;25.90;28.90
9271;DHT22;4673;53.458;9.940;2023-06-22T09:47:39;26.00;28.70
9271;DHT22;4673;53.458;9.940;2023-06-22T09:50:05;26.00;27.70
9271;DHT22;4673;53.458;9.940;2023-06-22T09:52:31;26.10;29.10
9271;DHT22;4673;53.458;9.940;2023-06-22T09:54:57;26.20;28.70
9271;DHT22;4673;53.458;9.940;2023-06-22T09:57:23;26.30;27.00
9271;DHT22;4673;53.458;9.940;2023-06-22T09:59:48;26.30;26.90
9271;DHT22;4673;53.458;9.940;2023-06-22T10:02:14;26.30;27.40
9271;DHT22;4673;53.458;9.940;2023-06-22T10:04:40;26.40;26.90
9271;DHT22;4673;53.458;9.940;2023-06-22T10:07:06;26.40;25.90
9271;DHT22;4673;53.458;9.940;2023-06-22T10:09:31;26.30;26.70
9271;DHT22;4673;53.458;9.940;2023-06-22T10:11:57;26.30;26.70
9271;DHT22;4673;53.458;9.940;2023-06-22T10:14:23;26.20;26.40
9271;DHT22;4673;53.458;9.940;2023-06-22T10:16:51;26.20;27.30
9271;DHT22;4673;53.458;9.940;2023-06-22T10:19:17;26.20;27.60
9271;DHT22;4673;53.458;9.940;2023-06-22T10:21:43;26.30;27.50
9271;DHT22;4673;53.458;9.940;2023-06-22T10:24:08;26.40;27.80
9271;DHT22;4673;53.458;9.940;2023-06-22T10:26:35;26.50;28.50
9271;DHT22;4673;53.458;9.940;2023-06-22T10:29:01;26.60;27.20
9271;DHT22;4673;53.458;9.940;2023-06-22T10:31:27;26.70;27.50
9271;DHT22;4673;53.458;9.940;2023-06-22T10:33:54;26.90;26.40
9271;DHT22;4673;53.458;9.940;2023-06-22T10:36:20;27.00;26.50
9271;DHT22;4673;53.458;9.940;2023-06-22T10:38:46;27.00;25.90
9271;DHT22;4673;53.458;9.940;2023-06-22T10:41:12;27.00;25.70
9271;DHT22;4673;53.458;9.940;2023-06-22T10:43:38;27.00;25.10
9271;DHT22;4673;53.458;9.940;2023-06-22T10:46:04;27.00;25.40
9271;DHT22;4673;53.458;9.940;2023-06-22T10:48:29;26.90;25.50
9271;DHT22;4673;53.458;9.940;2023-06-22T10:50:55;27.00;25.20
9271;DHT22;4673;53.458;9.940;2023-06-22T10:53:21;27.10;24.40
9271;DHT22;4673;53.458;9.940;2023-06-22T10:55:47;27.20;23.10
9271;DHT22;4673;53.458;9.940;2023-06-22T10:58:13;27.20;23.40
9271;DHT22;4673;53.458;9.940;2023-06-22T11:00:38;27.30;23.70
9271;DHT22;4673;53.458;9.940;2023-06-22T11:03:04;27.30;23.90
9271;DHT22;4673;53.458;9.940;2023-06-22T11:05:31;27.30;22.40
9271;DHT22;4673;53.458;9.940;2023-06-22T11:07:57;27.30;23.00
9271;DHT22;4673;53.458;9.940;2023-06-22T11:10:23;27.30;23.00
9271;DHT22;4673;53.458;9.940;2023-06-22T11:12:49;27.30;23.30
9271;DHT22;4673;53.458;9.940;2023-06-22T11:15:14;27.40;24.40
9271;DHT22;4673;53.458;9.940;2023-06-22T11:17:40;27.50;23.90
9271;DHT22;4673;53.458;9.940;2023-06-22T11:20:06;27.50;23.10
9271;DHT22;4673;53.458;9.940;2023-06-22T11:22:40;27.50;22.10
9271;DHT22;4673;53.458;9.940;2023-06-22T11:25:06;27.50;22.20
9271;DHT22;4673;53.458;9.940;2023-06-22T11:27:32;27.60;22.40
9271;DHT22;4673;53.458;9.940;2023-06-22T11:29:58;27.60;22.80
9271;DHT22;4673;53.458;9.940;2023-06-22T11:32:24;27.70;23.30
9271;DHT22;4673;53.458;9.940;2023-06-22T11:34:50;27.30;22.20
9271;DHT22;4673;53.458;9.940;2023-06-22T11:37:15;27.10;23.40
9271;DHT22;4673;53.458;9.940;2023-06-22T11:39:42;27.20;24.80
9271;DHT22;4673;53.458;9.940;2023-06-22T11:42:08;27.40;25.60
9271;DHT22;4673;53.458;9.940;2023-06-22T11:44:34;27.70;23.40
9271;DHT22;4673;53.458;9.940;2023-06-22T11:47:00;27.90;22.50
9271;DHT22;4673;53.458;9.940;2023-06-22T11:49:27;28.10;22.00
9271;DHT22;4673;53.458;9.940;2023-06-22T11:51:52;28.30;21.70
9271;DHT22;4673;53.458;9.940;2023-06-22T11:54:18;28.50;19.90
9271;DHT22;4673;53.458;9.940;2023-06-22T11:56:44;28.30;19.60
9271;DHT22;4673;53.458;9.940;2023-06-22T11:59:10;28.40;22.00
9271;DHT22;4673;53.458;9.940;2023-06-22T12:01:35;28.80;20.60
9271;DHT22;4673;53.458;9.940;2023-06-22T12:04:01;29.30;19.00
9271;DHT22;4673;53.458;9.940;2023-06-22T12:06:27;29.60;17.50
9271;DHT22;4673;53.458;9.940;2023-06-22T12:08:52;29.90;17.10
9271;DHT22;4673;53.458;9.940;2023-06-22T12:11:18;29.60;16.70
9271;DHT22;4673;53.458;9.940;2023-06-22T12:13:44;29.60;14.50
9271;DHT22;4673;53.458;9.940;2023-06-22T12:16:09;29.60;15.20
9271;DHT22;4673;53.458;9.940;2023-06-22T12:18:35;29.50;14.90
9271;DHT22;4673;53.458;9.940;2023-06-22T12:21:01;29.20;14.90
9271;DHT22;4673;53.458;9.940;2023-06-22T12:23:26;28.90;16.40
9271;DHT22;4673;53.458;9.940;2023-06-22T12:25:52;29.20;16.80
9271;DHT22;4673;53.458;9.940;2023-06-22T12:28:17;29.40;16.70
9271;DHT22;4673;53.458;9.940;2023-06-22T12:30:43;29.40;16.00
9271;DHT22;4673;53.458;9.940;2023-06-22T12:33:09;29.60;13.80
9271;DHT22;4673;53.458;9.940;2023-06-22T12:35:35;29.30;16.00
9271;DHT22;4673;53.458;9.940;2023-06-22T12:38:00;29.50;16.80
9271;DHT22;4673;53.458;9.940;2023-06-22T12:40:26;29.80;13.70
9271;DHT22;4673;53.458;9.940;2023-06-22T12:42:52;30.20;11.80
9271;DHT22;4673;53.458;9.940;2023-06-22T12:45:17;30.30;10.50
9271;DHT22;4673;53.458;9.940;2023-06-22T12:47:44;30.40;9.40
9271;DHT22;4673;53.458;9.940;2023-06-22T12:50:10;29.90;9.10
9271;DHT22;4673;53.458;9.940;2023-06-22T12:52:37;29.60;10.90
9271;DHT22;4673;53.458;9.940;2023-06-22T12:55:05;29.50;11.80
9271;DHT22;4673;53.458;9.940;2023-06-22T12:57:31;29.50;11.00
9271;DHT22;4673;53.458;9.940;2023-06-22T12:59:57;29.30;11.70
9271;DHT22;4673;53.458;9.940;2023-06-22T13:02:24;29.50;12.80
9271;DHT22;4673;53.458;9.940;2023-06-22T13:04:49;29.60;11.60
9271;DHT22;4673;53.458;9.940;2023-06-22T13:07:15;29.50;11.70
9271;DHT22;4673;53.458;9.940;2023-06-22T13:09:40;29.60;11.10
9271;DHT22;4673;53.458;9.940;2023-06-22T13:12:06;29.10;11.60
9271;DHT22;4673;53.458;9.940;2023-06-22T13:14:32;29.00;13.80
9271;DHT22;4673;53.458;9.940;2023-06-22T13:16:58;29.10;13.50
9271;DHT22;4673;53.458;9.940;2023-06-22T13:19:23;29.30;14.10
9271;DHT22;4673;53.458;9.940;2023-06-22T13:21:49;29.20;13.00
9271;DHT22;4673;53.458;9.940;2023-06-22T13:24:15;29.10;15.20
9271;DHT22;4673;53.458;9.940;2023-06-22T13:26:42;29.10;14.80
9271;DHT22;4673;53.458;9.940;2023-06-22T13:29:07;29.00;15.20
9271;DHT22;4673;53.458;9.940;2023-06-22T13:31:33;28.60;15.80
9271;DHT22;4673;53.458;9.940;2023-06-22T13:33:58;28.80;16.40
9271;DHT22;4673;53.458;9.940;2023-06-22T13:36:24;29.10;16.30
9271;DHT22;4673;53.458;9.940;2023-06-22T13:38:50;29.40;14.70
9271;DHT22;4673;53.458;9.940;2023-06-22T13:41:15;29.70;13.20
9271;DHT22;4673;53.458;9.940;2023-06-22T13:43:41;29.80;12.50
9271;DHT22;4673;53.458;9.940;2023-06-22T13:46:07;29.90;12.10
9271;DHT22;4673;53.458;9.940;2023-06-22T13:48:32;30.00;12.70
9271;DHT22;4673;53.458;9.940;2023-06-22T13:50:58;29.90;11.60
9271;DHT22;4673;53.458;9.940;2023-06-22T13:53:25;29.50;12.40
9271;DHT22;4673;53.458;9.940;2023-06-22T13:55:51;29.20;13.30
9271;DHT22;4673;53.458;9.940;2023-06-22T13:58:17;29.00;14.00
9271;DHT22;4673;53.458;9.940;2023-06-22T14:00:45;28.90;15.50
9271;DHT22;4673;53.458;9.940;2023-06-22T14:03:10;29.00;15.00
9271;DHT22;4673;53.458;9.940;2023-06-22T14:05:36;28.90;14.70
9271;DHT22;4673;53.458;9.940;2023-06-22T14:08:02;28.90;14.80
9271;DHT22;4673;53.458;9.940;2023-06-22T14:10:27;28.80;15.30
9271;DHT22;4673;53.458;9.940;2023-06-22T14:12:53;28.70;15.70
9271;DHT22;4673;53.458;9.940;2023-06-22T14:15:19;28.30;18.80
9271;DHT22;4673;53.458;9.940;2023-06-22T14:17:44;27.90;26.50
9271;DHT22;4673;53.458;9.940;2023-06-22T14:20:10;27.50;30.10
9271;DHT22;4673;53.458;9.940;2023-06-22T14:22:36;27.10;34.20
9271;DHT22;4673;53.458;9.940;2023-06-22T14:25:02;26.90;35.90
9271;DHT22;4673;53.458;9.940;2023-06-22T14:27:28;26.70;35.50
9271;DHT22;4673;53.458;9.940;2023-06-22T14:29:53;26.50;36.40
9271;DHT22;4673;53.458;9.940;2023-06-22T14:32:19;26.30;37.50
9271;DHT22;4673;53.458;9.940;2023-06-22T14:34:45;26.20;38.60
9271;DHT22;4673;53.458;9.940;2023-06-22T14:37:10;26.20;39.00
9271;DHT22;4673;53.458;9.940;2023-06-22T14:39:38;26.20;37.10
9271;DHT22;4673;53.458;9.940;2023-06-22T14:42:05;26.00;37.50
9271;DHT22;4673;53.458;9.940;2023-06-22T14:44:30;26.10;38.20
9271;DHT22;4673;53.458;9.940;2023-06-22T14:46:57;26.20;39.20
9271;DHT22;4673;53.458;9.940;2023-06-22T14:49:23;26.30;36.40
9271;DHT22;4673;53.458;9.940;2023-06-22T14:51:48;26.50;36.60
9271;DHT22;4673;53.458;9.940;2023-06-22T14:54:14;26.60;35.10
9271;DHT22;4673;53.458;9.940;2023-06-22T14:56:40;26.60;34.20
9271;DHT22;4673;53.458;9.940;2023-06-22T14:59:06;26.80;34.50
9271;DHT22;4673;53.458;9.940;2023-06-22T15:01:32;26.80;32.90
9271;DHT22;4673;53.458;9.940;2023-06-22T15:03:57;26.80;32.60
9271;DHT22;4673;53.458;9.940;2023-06-22T15:06:23;26.70;32.40
9271;DHT22;4673;53.458;9.940;2023-06-22T15:08:48;26.60;32.90
9271;DHT22;4673;53.458;9.940;2023-06-22T15:11:14;26.50;33.70
9271;DHT22;4673;53.458;9.940;2023-06-22T15:13:40;26.40;32.70
9271;DHT22;4673;53.458;9.940;2023-06-22T15:16:06;26.30;33.70
9271;DHT22;4673;53.458;9.940;2023-06-22T15:18:32;26.30;34.10
9271;DHT22;4673;53.458;9.940;2023-06-22T15:21:03;26.20;33.80
9271;DHT22;4673;53.458;9.940;2023-06-22T15:23:30;26.30;33.70
9271;DHT22;4673;53.458;9.940;2023-06-22T15:25:57;26.20;34.50
9271;DHT22;4673;53.458;9.940;2023-06-22T15:28:23;26.30;33.40
9271;DHT22;4673;53.458;9.940;2023-06-22T15:30:49;26.40;34.10
9271;DHT22;4673;53.458;9.940;2023-06-22T15:33:15;26.40;34.00
9271;DHT22;4673;53.458;9.940;2023-06-22T15:35:41;26.30;33.00
9271;DHT22;4673;53.458;9.940;2023-06-22T15:38:07;26.30;33.20
9271;DHT22;4673;53.458;9.940;2023-06-22T15:40:32;26.30;33.50
9271;DHT22;4673;53.458;9.940;2023-06-22T15:42:58;26.30;33.00
9271;DHT22;4673;53.458;9.940;2023-06-22T15:45:25;26.20;34.00
9271;DHT22;4673;53.458;9.940;2023-06-22T15:47:50;26.20;34.00
9271;DHT22;4673;53.458;9.940;2023-06-22T15:50:16;26.20;33.50
9271;DHT22;4673;53.458;9.940;2023-06-22T15:52:42;26.20;33.00
9271;DHT22;4673;53.458;9.940;2023-06-22T15:55:08;26.00;33.50
9271;DHT22;4673;53.458;9.940;2023-06-22T15:57:35;26.00;33.60
9271;DHT22;4673;53.458;9.940;2023-06-22T16:00:01;26.00;33.30
9271;DHT22;4673;53.458;9.940;2023-06-22T16:02:26;26.00;33.70
9271;DHT22;4673;53.458;9.940;2023-06-22T16:04:53;25.90;33.60
9271;DHT22;4673;53.458;9.940;2023-06-22T16:07:21;25.90;33.50
9271;DHT22;4673;53.458;9.940;2023-06-22T16:09:47;25.90;33.40
9271;DHT22;4673;53.458;9.940;2023-06-22T16:12:13;25.90;33.40
9271;DHT22;4673;53.458;9.940;2023-06-22T16:14:38;25.90;33.00
9271;DHT22;4673;53.458;9.940;2023-06-22T16:17:06;25.90;33.10
9271;DHT22;4673;53.458;9.940;2023-06-22T16:19:31;25.90;32.80